HDAM/JIB METAR and TAF weather

Enter ICAO airport designator
Station Type Date Time Source
HDAM METAR 2022/08/13 12:00 UTC NOAA

HDAM 131200Z 31013KT 9999 SCT023 40/22 Q9999.5


Station Type Date Time Source
HDAM Decoded METAR 2022/08/13 12:00 UTC NOAA

Djibouti \ Ambouli, Djibouti (HDAM) 11-33N 043-10E
Aug 13, 2022 - 08:00 AM EDT / 2022.08.13 1200 UTC
Wind: from the NW (310 degrees) at 15 MPH (13 KT):0
Visibility: greater than 7 mile(s):0
Sky conditions: partly cloudy
Temperature: 104 F (40 C)
Heat index: 113.9 F (45.5 C):1
Dew Point: 71 F (22 C)
Relative Humidity: 35%
Pressure (altimeter): 295.27 in. Hg (9999 hPa)
ob: HDAM 131200Z 31013KT 9999 SCT023 40/22 Q9999.5
cycle: 12

Station Type Date Time Source
HDAM TAF 2022/08/13 12:15 UTC NOAA

TAF TAF HDAM 131100Z 1312/1412 27010G15KT 9999 SCT023 FEW030CB FEW133 FEW266
BECMG 1315/1321 VRB05KT 9999 32010KT SCT023 SCT133 FEW266
BECMG 1400/1406 24015G20KT 8000 SHRA SCT023 FEW030CB SCT133

Example: see airport list